»·PEaware :: N629J KLAX-KSNA

N629J :: KLAX-KSNA

FLIGHT INFORMATION

Flight Status: Arrived
Operator: Privately registered:
United States
More flights under this callsign
Pilot: Thiago S. (19132)
Aircraft: BEECH AIRCRAFT A90-E90 KING AIR
(BE9L)
More flights by this aircraft type
Origin: KLAX Los Angeles Intl
United States
Destination: KSNA John Wayne-Orange Co
United States
More flights between these airports :: More routes between these airports
Route: SLI8 SLI
File this flight plan on PilotEdge
Remarks: I RATING 5
Altitude:
(Current/Filed)
5,000ft
Speed:
(Current/Filed)
200kts
Departed: 19-Feb-19 04:03 PM
Arrived: 19-Feb-19 04:35 PM
Distance/Time
Traveled:
1nm/0:32
Distance/Time
To Go:
Arrived

Flight Plot

Page will automatically refresh every two minutes.

Flight plan parsing failed; only flown route is shown


Map Options




Map Legend


Flown Route
Filed Route
Departure Airport
Arrival Airport
Navaid (VOR, NDB)
Fix

Horizontal Profiles

Position Reports

Time Latitude Longitude Heading Altitude Ground
Speed
19-Feb-19 15:39 33.933327 -118.397097 279 131ft 0kts
19-Feb-19 15:40 33.933327 -118.397097 279 131ft 0kts
19-Feb-19 15:41 33.933327 -118.397097 279 131ft 0kts
19-Feb-19 15:42 33.933327 -118.397097 279 131ft 0kts
19-Feb-19 15:43 33.933327 -118.397097 279 131ft 0kts
19-Feb-19 15:44 33.933328 -118.397101 279 131ft 0kts
19-Feb-19 15:45 33.933329 -118.397106 279 131ft 0kts
19-Feb-19 15:46 33.933329 -118.397111 279 131ft 0kts
19-Feb-19 15:47 33.933330 -118.397116 279 131ft 0kts
19-Feb-19 15:48 33.933331 -118.397121 279 131ft 0kts
19-Feb-19 15:49 33.933332 -118.397127 279 131ft 0kts
19-Feb-19 15:50 33.933332 -118.397132 279 131ft 0kts
19-Feb-19 15:51 33.933333 -118.397137 279 131ft 0kts
19-Feb-19 15:52 33.933334 -118.397142 279 131ft 0kts
19-Feb-19 15:53 33.933335 -118.397147 279 131ft 0kts
19-Feb-19 15:54 33.934008 -118.397449 348 131ft 5kts
19-Feb-19 15:55 33.934638 -118.397229 82 131ft 5kts
19-Feb-19 15:56 33.934902 -118.394641 83 131ft 9kts
19-Feb-19 15:57 33.935231 -118.391428 83 131ft 9kts
19-Feb-19 15:58 33.935562 -118.388130 83 131ft 9kts
19-Feb-19 15:59 33.935903 -118.384812 81 131ft 10kts
19-Feb-19 16:00 33.936378 -118.382921 13 131ft 0kts
19-Feb-19 16:01 33.936427 -118.382906 14 131ft 4kts
19-Feb-19 16:02 33.936463 -118.391433 262 131ft 87kts
19-Feb-19 16:03 33.935326 -118.426165 265 1344ft 109kts
19-Feb-19 16:04 33.931161 -118.463418 240 2485ft 118kts
19-Feb-19 16:05 33.902829 -118.489869 213 3300ft 143kts
19-Feb-19 16:06 33.869919 -118.515196 213 4438ft 142kts
19-Feb-19 16:07 33.831517 -118.535725 162 5008ft 178kts
19-Feb-19 16:08 33.815012 -118.477410 93 5001ft 204kts
19-Feb-19 16:09 33.809789 -118.409717 96 4996ft 205kts
19-Feb-19 16:10 33.803754 -118.339765 94 4992ft 209kts
19-Feb-19 16:11 33.798958 -118.268528 94 4994ft 210kts
19-Feb-19 16:12 33.793758 -118.198597 95 4995ft 208kts
19-Feb-19 16:13 33.788731 -118.129191 95 4996ft 207kts
19-Feb-19 16:14 33.783911 -118.059284 92 4989ft 210kts
19-Feb-19 16:15 33.806008 -117.994195 57 4983ft 210kts
19-Feb-19 16:16 33.833086 -117.931302 64 4533ft 218kts
19-Feb-19 16:17 33.860848 -117.864048 64 3994ft 220kts
19-Feb-19 16:18 33.886896 -117.798618 64 3969ft 209kts
19-Feb-19 16:19 33.912272 -117.734203 65 3967ft 206kts
19-Feb-19 16:20 33.949291 -117.682746 37 3726ft 212kts
19-Feb-19 16:21 33.999190 -117.648070 353 3471ft 199kts
19-Feb-19 16:22 34.003158 -117.692815 197 3465ft 190kts
19-Feb-19 16:23 33.957204 -117.705644 191 3461ft 145kts
19-Feb-19 16:24 33.920145 -117.714881 200 3468ft 130kts
19-Feb-19 16:25 33.885857 -117.735939 208 2968ft 135kts
19-Feb-19 16:26 33.851458 -117.757204 208 2754ft 139kts
19-Feb-19 16:27 33.824732 -117.774028 209 2777ft 97kts
19-Feb-19 16:28 33.798177 -117.791233 210 2875ft 111kts
19-Feb-19 16:29 33.770087 -117.809031 209 2036ft 114kts
19-Feb-19 16:30 33.744911 -117.824956 208 1505ft 101kts
19-Feb-19 16:31 33.720499 -117.840453 208 926ft 97kts
19-Feb-19 16:32 33.695774 -117.856154 208 433ft 103kts
19-Feb-19 16:33 33.673775 -117.870042 207 61ft 42kts
19-Feb-19 16:34 33.669114 -117.872143 123 61ft 0kts
19-Feb-19 16:35 33.667757 -117.871594 128 61ft 4kts
19-Feb-19 16:36 33.667813 -117.871311 36 61ft 0kts
19-Feb-19 16:37 33.667814 -117.871311 36 61ft 0kts
19-Feb-19 16:38 33.667814 -117.871311 36 61ft 0kts
19-Feb-19 16:39 33.667814 -117.871311 36 61ft 0kts
19-Feb-19 16:40 33.667814 -117.871311 36 61ft 0kts
19-Feb-19 16:41 33.667814 -117.871311 36 61ft 0kts
19-Feb-19 16:42 33.667814 -117.871311 36 61ft 0kts
19-Feb-19 16:43 33.933328 -118.397094 0 126ft 0kts

Navigation Log

Ident Type
Flight plan parsing failed, navigation log unavailable